Malatya/Erhac, Turkey
Current Conditions -  °F | °C
As of 1:50 AM on Saturday 01 Nov 2014 (Local Time) from LTAT Reporting Station
Broken Clouds Broken Clouds  
Wind Chill:   Ceiling: 10000
Heat Index:   Visibility: 6mi
Dew Point:   Wind: 0mph
Humidity: 100%   Direction: NA
Pressure: 29.91"   Gusts: NA
Location:  38.43°N, 38.08°E
Report Text: LTAT 312250Z 00000KT 9999 SCT040 BKN100 08/08 Q1013 NOSIG
Loading
Personal Weather Stations






























Interactive Weather Map
Tropical Storm Tracking
New forecast layout! Learn more

10-Day Weather Forecast

Advertisements
Track Severe Weather on mobile